Kyokuho Maru No.15 — JI3715 — position and weather

sailwx.info

Track history (hours):
 
Tides and Currents Weather Stations Pressure Air Temp Water Temp Dewpoint Dewpoint Depression Visibility Wind Speed Wind Dir Waves Ship Positions

Kyokuho Maru No.15

Last reported at 2017-Feb-28 13:33 UTC. Time now 2017-Feb-28 14:32 UTC.
Position N 34°40' E 135°22'.

Length 63 m; draft 3.2 m.

Type: Tanker. MMSI: 431301714.

Date/timePositionNaut miles runAvg speedWind from/ knotsBaromVisibWave heightAir tempDewpointWater temp
2017-Feb-28 13:33N 34°40' E 135°22'0 0.0
2017-Feb-28 12:33N 34°40' E 135°22'0 0.0
2017-Feb-28 11:33N 34°40' E 135°22'0 0.0
2017-Feb-28 10:33N 34°40' E 135°22'6 6.4
2017-Feb-28 09:33N 34°37' E 135°16'1312.5
2017-Feb-28 08:31N 34°37' E 134°60'11512.5
2017-Feb-27 23:16N 34°02' E 132°47'913.1
2017-Feb-27 22:33N 33°55' E 132°39'1312.6
2017-Feb-27 21:32N 33°46' E 132°29'12 0.4
2017-Feb-26 19:33N 33°39' E 132°17'1212.4
2017-Feb-26 18:33N 33°47' E 132°28'1313.1
2017-Feb-26 17:33N 33°56' E 132°40'12411.2
2017-Feb-26 06:29N 34°37' E 135°01'7 7.9
2017-Feb-26 05:33N 34°37' E 135°10'7 5.6
2017-Feb-26 04:21N 34°39' E 135°18'0 0.1
2017-Feb-26 03:27N 34°39' E 135°18'0 0.1
2017-Feb-26 02:33N 34°39' E 135°18'0 0.0
2017-Feb-26 01:15N 34°39' E 135°18'0 0.1
2017-Feb-26 00:27N 34°39' E 135°18'0 0.1
2017-Feb-25 23:33N 34°39' E 135°18'0 0.0
2017-Feb-25 22:27N 34°39' E 135°18'0 0.3
2017-Feb-25 21:33N 34°39' E 135°18'10 9.7
2017-Feb-25 20:33N 34°31' E 135°24'  
2017-Feb-22 22:17N 34°31' E 135°24'0 0.0
2017-Feb-22 21:33N 34°31' E 135°24'0 0.0
2017-Feb-22 20:33N 34°31' E 135°24'0 0.0
2017-Feb-22 19:33N 34°31' E 135°24'0 0.0
2017-Feb-22 18:33N 34°31' E 135°24'0 0.0
2017-Feb-22 17:33N 34°31' E 135°24'0 0.0
2017-Feb-22 16:33N 34°31' E 135°24'0 0.0
2017-Feb-22 15:33N 34°31' E 135°24'0 0.0
2017-Feb-22 14:33N 34°31' E 135°24'0 0.0
2017-Feb-22 13:33N 34°31' E 135°24'0 0.0
2017-Feb-22 12:33N 34°31' E 135°24'0 0.0
2017-Feb-22 11:33N 34°31' E 135°24'0 0.0
2017-Feb-22 10:33N 34°31' E 135°24'0 0.0
2017-Feb-22 09:33N 34°31' E 135°24'0 0.0
2017-Feb-22 08:33N 34°31' E 135°24'0 0.0
2017-Feb-22 07:33N 34°31' E 135°24'0 0.0
2017-Feb-22 06:33N 34°31' E 135°24'7 7.2
2017-Feb-22 05:33N 34°38' E 135°23'3 0.7
2017-Feb-22 01:12N 34°40' E 135°25'4 5.6
2017-Feb-22 00:33N 34°38' E 135°28'0 0.2
2017-Feb-21 23:15N 34°38' E 135°29'5 6.7
2017-Feb-21 22:33N 34°37' E 135°23'6 0.5
2017-Feb-21 10:26N 34°31' E 135°24'0 0.0
2017-Feb-21 09:33N 34°31' E 135°24'0 0.0
2017-Feb-21 08:33N 34°31' E 135°24'0 0.0
2017-Feb-21 07:33N 34°31' E 135°24'0 0.0
2017-Feb-21 06:33N 34°31' E 135°24'0 0.0
2017-Feb-21 05:33N 34°31' E 135°24'0 0.0
2017-Feb-21 04:30N 34°31' E 135°24'0 0.0
2017-Feb-21 03:31N 34°31' E 135°24'0 0.4
2017-Feb-21 02:33N 34°31' E 135°24'1 0.2
2017-Feb-20 23:17N 34°31' E 135°25'3 4.0
2017-Feb-20 22:31N 34°33' E 135°21'0 0.0
2017-Feb-20 21:33N 34°33' E 135°21'0 0.0
2017-Feb-20 20:33N 34°33' E 135°21'0 0.0
2017-Feb-20 19:33N 34°33' E 135°21'0 0.0
2017-Feb-20 18:34N 34°33' E 135°21'0 0.0
2017-Feb-20 17:33N 34°33' E 135°21'3 2.5
2017-Feb-20 16:33N 34°33' E 135°18'1212.0
2017-Feb-20 15:33N 34°35' E 135°04'11711.6
2017-Feb-20 05:29N 34°08' E 132°47'1312.4
2017-Feb-20 04:28N 34°02' E 132°33'  
Track history (hours):
 
Tides and Currents Weather Stations Pressure Air Temp Water Temp Dewpoint Dewpoint Depression Visibility Wind Speed Wind Dir Waves Ship Positions

Kyokuho Maru No.15

Last reported at 2017-Feb-28 13:33 UTC. Time now 2017-Feb-28 14:32 UTC.
Position N 34°40' E 135°22'.

Length 63 m; draft 3.2 m.

Type: Tanker. MMSI: 431301714.

Date/timePositionNaut miles runAvg speedWind from/ knotsBaromVisibWave heightAir tempDewpointWater temp
2017-Feb-28 13:33N 34°40' E 135°22'0 0.0
2017-Feb-28 12:33N 34°40' E 135°22'0 0.0
2017-Feb-28 11:33N 34°40' E 135°22'0 0.0
2017-Feb-28 10:33N 34°40' E 135°22'6 6.4
2017-Feb-28 09:33N 34°37' E 135°16'1312.5
2017-Feb-28 08:31N 34°37' E 134°60'11512.5
2017-Feb-27 23:16N 34°02' E 132°47'913.1
2017-Feb-27 22:33N 33°55' E 132°39'1312.6
2017-Feb-27 21:32N 33°46' E 132°29'12 0.4
2017-Feb-26 19:33N 33°39' E 132°17'1212.4
2017-Feb-26 18:33N 33°47' E 132°28'1313.1
2017-Feb-26 17:33N 33°56' E 132°40'12411.2
2017-Feb-26 06:29N 34°37' E 135°01'7 7.9
2017-Feb-26 05:33N 34°37' E 135°10'7 5.6
2017-Feb-26 04:21N 34°39' E 135°18'0 0.1
2017-Feb-26 03:27N 34°39' E 135°18'0 0.1
2017-Feb-26 02:33N 34°39' E 135°18'0 0.0
2017-Feb-26 01:15N 34°39' E 135°18'0 0.1
2017-Feb-26 00:27N 34°39' E 135°18'0 0.1
2017-Feb-25 23:33N 34°39' E 135°18'0 0.0
2017-Feb-25 22:27N 34°39' E 135°18'0 0.3
2017-Feb-25 21:33N 34°39' E 135°18'10 9.7
2017-Feb-25 20:33N 34°31' E 135°24'  
2017-Feb-22 22:17N 34°31' E 135°24'0 0.0
2017-Feb-22 21:33N 34°31' E 135°24'0 0.0
2017-Feb-22 20:33N 34°31' E 135°24'0 0.0
2017-Feb-22 19:33N 34°31' E 135°24'0 0.0
2017-Feb-22 18:33N 34°31' E 135°24'0 0.0
2017-Feb-22 17:33N 34°31' E 135°24'0 0.0
2017-Feb-22 16:33N 34°31' E 135°24'0 0.0
2017-Feb-22 15:33N 34°31' E 135°24'0 0.0
2017-Feb-22 14:33N 34°31' E 135°24'0 0.0
2017-Feb-22 13:33N 34°31' E 135°24'0 0.0
2017-Feb-22 12:33N 34°31' E 135°24'0 0.0
2017-Feb-22 11:33N 34°31' E 135°24'0 0.0
2017-Feb-22 10:33N 34°31' E 135°24'0 0.0
2017-Feb-22 09:33N 34°31' E 135°24'0 0.0
2017-Feb-22 08:33N 34°31' E 135°24'0 0.0
2017-Feb-22 07:33N 34°31' E 135°24'0 0.0
2017-Feb-22 06:33N 34°31' E 135°24'7 7.2
2017-Feb-22 05:33N 34°38' E 135°23'3 0.7
2017-Feb-22 01:12N 34°40' E 135°25'4 5.6
2017-Feb-22 00:33N 34°38' E 135°28'0 0.2
2017-Feb-21 23:15N 34°38' E 135°29'5 6.7
2017-Feb-21 22:33N 34°37' E 135°23'6 0.5
2017-Feb-21 10:26N 34°31' E 135°24'0 0.0
2017-Feb-21 09:33N 34°31' E 135°24'0 0.0
2017-Feb-21 08:33N 34°31' E 135°24'0 0.0
2017-Feb-21 07:33N 34°31' E 135°24'0 0.0
2017-Feb-21 06:33N 34°31' E 135°24'0 0.0
2017-Feb-21 05:33N 34°31' E 135°24'0 0.0
2017-Feb-21 04:30N 34°31' E 135°24'0 0.0
2017-Feb-21 03:31N 34°31' E 135°24'0 0.4
2017-Feb-21 02:33N 34°31' E 135°24'1 0.2
2017-Feb-20 23:17N 34°31' E 135°25'3 4.0
2017-Feb-20 22:31N 34°33' E 135°21'0 0.0
2017-Feb-20 21:33N 34°33' E 135°21'0 0.0
2017-Feb-20 20:33N 34°33' E 135°21'0 0.0
2017-Feb-20 19:33N 34°33' E 135°21'0 0.0
2017-Feb-20 18:34N 34°33' E 135°21'0 0.0
2017-Feb-20 17:33N 34°33' E 135°21'3 2.5
2017-Feb-20 16:33N 34°33' E 135°18'1212.0
2017-Feb-20 15:33N 34°35' E 135°04'11711.6
2017-Feb-20 05:29N 34°08' E 132°47'1312.4
2017-Feb-20 04:28N 34°02' E 132°33'  

Dump ship's entire track history